createdAt,value
2022-11-15T00:02:40.209Z,9.25
2022-11-15T00:05:28.637Z,9.22
2022-11-15T00:08:15.885Z,9.19
2022-11-15T00:11:05.125Z,9.14
2022-11-15T00:13:52.098Z,9.13
2022-11-15T00:16:39.495Z,9.05
2022-11-15T00:19:26.160Z,9.06
2022-11-15T00:22:14.645Z,9.03
2022-11-15T00:25:01.578Z,9.07
2022-11-15T00:27:48.728Z,9.08
2022-11-15T00:30:35.718Z,9.00
2022-11-15T00:33:22.480Z,8.99
2022-11-15T00:36:11.745Z,9.13
2022-11-15T00:38:59.800Z,9.06
2022-11-15T00:41:46.539Z,9.02
2022-11-15T00:44:33.705Z,8.98
2022-11-15T00:47:21.086Z,8.97
2022-11-15T00:50:11.695Z,9.00
2022-11-15T00:53:01.194Z,8.99
2022-11-15T00:55:49.419Z,9.36
2022-11-15T00:58:36.118Z,9.54
2022-11-15T01:01:23.530Z,9.62
2022-11-15T01:04:10.807Z,9.75
2022-11-15T01:06:57.931Z,9.92
2022-11-15T01:09:45.148Z,9.95
2022-11-15T01:12:34.038Z,10.06
2022-11-15T01:15:21.208Z,10.02
2022-11-15T01:18:08.261Z,10.02
2022-11-15T01:20:55.154Z,10.00
2022-11-15T01:23:42.193Z,10.06
2022-11-15T01:26:29.505Z,10.15
2022-11-15T01:29:18.235Z,10.23
2022-11-15T01:32:05.671Z,10.23
2022-11-15T01:34:52.889Z,9.97
2022-11-15T01:37:39.936Z,9.75
2022-11-15T01:40:26.950Z,9.58
2022-11-15T01:43:26.468Z,9.49
2022-11-15T01:46:29.948Z,9.42
2022-11-15T01:49:20.598Z,9.41
2022-11-15T01:52:12.879Z,9.35
2022-11-15T01:55:08.763Z,9.37
2022-11-15T01:58:00.598Z,9.37
2022-11-15T02:00:48.811Z,9.39
2022-11-15T02:03:44.560Z,9.38
2022-11-15T02:06:31.682Z,9.39
2022-11-15T02:09:20.134Z,9.41
2022-11-15T02:12:09.327Z,9.42
2022-11-15T02:14:58.343Z,9.42
2022-11-15T02:18:12.638Z,9.43
2022-11-15T02:21:28.574Z,9.48
2022-11-15T02:25:03.719Z,9.48
2022-11-15T02:28:43.321Z,9.51
2022-11-15T02:31:38.882Z,9.53
2022-11-15T02:34:37.151Z,9.54
2022-11-15T02:37:34.235Z,9.56
2022-11-15T02:40:33.285Z,9.57
2022-11-15T02:43:44.784Z,9.59
2022-11-15T02:46:58.475Z,9.55
2022-11-15T02:49:50.401Z,9.54
2022-11-15T02:52:37.402Z,9.51
2022-11-15T02:55:30.891Z,9.52
2022-11-15T02:58:50.622Z,9.56
2022-11-15T03:01:54.887Z,9.55
2022-11-15T03:04:50.325Z,9.51
2022-11-15T03:07:45.129Z,9.46
2022-11-15T03:10:44.635Z,9.36
2022-11-15T03:13:40.121Z,9.32
2022-11-15T03:16:36.127Z,9.32
2022-11-15T03:19:34.370Z,9.30
2022-11-15T03:22:26.675Z,9.26
2022-11-15T03:25:23.206Z,9.20
2022-11-15T03:28:15.129Z,9.17
2022-11-15T03:31:27.373Z,9.12
2022-11-15T03:34:27.683Z,9.13
2022-11-15T03:37:17.859Z,9.09
2022-11-15T03:40:07.126Z,9.07
2022-11-15T03:43:04.180Z,9.05
2022-11-15T03:45:58.148Z,9.06
2022-11-15T03:48:53.040Z,9.02
2022-11-15T03:51:42.026Z,8.99
2022-11-15T03:54:29.078Z,8.98
2022-11-15T03:57:15.867Z,8.95
2022-11-15T04:00:02.901Z,8.97
2022-11-15T04:02:50.046Z,8.99
2022-11-15T04:05:36.820Z,9.02
2022-11-15T04:08:25.253Z,9.05
2022-11-15T04:11:12.265Z,9.08
2022-11-15T04:13:59.240Z,9.09
2022-11-15T04:16:46.252Z,9.12
2022-11-15T04:19:50.843Z,9.12
2022-11-15T04:22:55.649Z,9.19
2022-11-15T04:25:44.969Z,9.23
2022-11-15T04:28:31.894Z,9.25
2022-11-15T04:31:26.839Z,9.30
2022-11-15T04:34:13.668Z,9.33
2022-11-15T04:37:17.159Z,9.36
2022-11-15T04:40:04.626Z,9.38
2022-11-15T04:42:51.813Z,9.38
2022-11-15T04:45:38.762Z,9.40
2022-11-15T04:48:27.269Z,9.40
2022-11-15T04:51:14.096Z,9.44
2022-11-15T04:54:01.009Z,9.46
2022-11-15T04:56:47.957Z,9.44
2022-11-15T04:59:34.979Z,9.44
2022-11-15T05:02:21.817Z,9.45
2022-11-15T05:05:15.244Z,9.42
2022-11-15T05:08:01.920Z,9.38
2022-11-15T05:10:50.355Z,9.42
2022-11-15T05:13:37.120Z,9.40
2022-11-15T05:16:24.391Z,9.41
2022-11-15T05:19:11.456Z,9.38
2022-11-15T05:21:59.577Z,9.42
2022-11-15T05:24:46.324Z,9.38
2022-11-15T05:27:33.844Z,9.31
2022-11-15T05:30:21.111Z,9.26
2022-11-15T05:33:07.889Z,9.25
2022-11-15T05:36:02.599Z,9.28
2022-11-15T05:38:51.570Z,9.29
2022-11-15T05:41:43.171Z,9.26
2022-11-15T05:44:30.541Z,9.20
2022-11-15T05:47:23.778Z,9.19
2022-11-15T05:50:15.147Z,9.11
2022-11-15T05:53:05.314Z,9.13
2022-11-15T05:55:53.962Z,9.07
2022-11-15T05:58:40.767Z,9.09
2022-11-15T06:01:29.302Z,9.05
2022-11-15T06:04:16.245Z,9.13
2022-11-15T06:07:03.368Z,9.17
2022-11-15T06:09:50.474Z,9.17
2022-11-15T06:12:38.752Z,9.16
2022-11-15T06:15:25.528Z,9.19
2022-11-15T06:18:12.702Z,9.22
2022-11-15T06:21:01.972Z,9.24
2022-11-15T06:23:49.023Z,9.28
2022-11-15T06:26:35.897Z,9.31
2022-11-15T06:29:24.457Z,9.36
2022-11-15T06:32:11.308Z,9.41
2022-11-15T06:34:58.362Z,9.45
2022-11-15T06:37:45.636Z,9.50
2022-11-15T06:40:32.524Z,9.56
2022-11-15T06:43:19.652Z,9.57
2022-11-15T06:46:08.726Z,9.61
2022-11-15T06:48:56.252Z,9.63
2022-11-15T06:51:42.904Z,9.66
2022-11-15T06:54:29.771Z,9.67
2022-11-15T06:57:16.799Z,9.70
2022-11-15T07:00:05.289Z,9.72
2022-11-15T07:02:53.779Z,9.74
2022-11-15T07:05:40.933Z,9.81
2022-11-15T07:08:30.614Z,9.84
2022-11-15T07:11:17.693Z,9.85
2022-11-15T07:14:04.416Z,9.82
2022-11-15T07:16:51.551Z,9.87
2022-11-15T07:19:39.988Z,9.89
2022-11-15T07:22:26.884Z,9.92
2022-11-15T07:25:13.959Z,9.89
2022-11-15T07:28:02.201Z,9.98
2022-11-15T07:30:49.042Z,10.04
2022-11-15T07:33:36.934Z,10.10
2022-11-15T07:36:25.412Z,10.05
2022-11-15T07:39:13.122Z,10.08
2022-11-15T07:42:13.910Z,10.24
2022-11-15T07:45:01.015Z,10.22
2022-11-15T07:47:48.214Z,10.23
2022-11-15T07:50:35.580Z,10.18
2022-11-15T07:53:23.895Z,10.25
2022-11-15T07:56:11.107Z,10.24
2022-11-15T07:58:58.508Z,10.23
2022-11-15T08:01:45.545Z,10.27
2022-11-15T08:04:32.359Z,10.20
2022-11-15T08:07:19.569Z,10.30
2022-11-15T08:10:09.956Z,10.32
2022-11-15T08:13:04.346Z,10.32
2022-11-15T08:15:57.395Z,10.38
2022-11-15T08:18:44.953Z,10.45
2022-11-15T08:21:31.907Z,10.53
2022-11-15T08:24:18.979Z,10.61
2022-11-15T08:27:15.931Z,10.67
2022-11-15T08:30:03.700Z,10.73
2022-11-15T08:32:51.279Z,10.76
2022-11-15T08:35:38.259Z,10.82
2022-11-15T08:38:25.367Z,10.91
2022-11-15T08:41:27.620Z,11.06
2022-11-15T08:44:16.213Z,11.11
2022-11-15T08:47:02.975Z,11.10
2022-11-15T08:49:50.117Z,11.16
2022-11-15T08:52:36.939Z,11.15
2022-11-15T08:55:24.978Z,11.06
2022-11-15T08:58:12.285Z,11.17
2022-11-15T09:01:00.923Z,11.23
2022-11-15T09:03:48.373Z,11.31
2022-11-15T09:06:36.315Z,11.42
2022-11-15T09:09:25.712Z,11.54
2022-11-15T09:12:12.707Z,11.65
2022-11-15T09:15:00.065Z,11.64
2022-11-15T09:17:48.271Z,11.79
2022-11-15T09:20:35.342Z,11.88
2022-11-15T09:23:22.097Z,11.99
2022-11-15T09:26:09.343Z,12.05
2022-11-15T09:28:56.219Z,12.07
2022-11-15T09:31:43.788Z,12.19
2022-11-15T09:34:31.881Z,12.27
2022-11-15T09:37:19.074Z,12.34
2022-11-15T09:40:07.100Z,12.45
2022-11-15T09:43:24.290Z,12.39
2022-11-15T09:46:17.988Z,12.34
2022-11-15T09:49:05.580Z,12.29
2022-11-15T09:51:37.638Z,12.36
2022-11-15T09:57:16.076Z,12.43
2022-11-15T10:03:14.019Z,13.16
2022-11-15T10:05:45.066Z,13.59
2022-11-15T10:08:31.300Z,13.80
2022-11-15T10:11:35.587Z,13.94
2022-11-15T10:13:53.241Z,14.40
2022-11-15T10:17:10.646Z,14.76
2022-11-15T10:19:54.644Z,14.95
2022-11-15T10:22:42.634Z,15.04
2022-11-15T10:25:34.760Z,14.87
2022-11-15T10:28:13.514Z,14.74
2022-11-15T10:30:45.345Z,14.49
2022-11-15T10:33:28.740Z,14.48
2022-11-15T10:36:25.666Z,14.00
2022-11-15T10:38:57.930Z,14.03
2022-11-15T10:41:38.382Z,14.03
2022-11-15T10:44:23.984Z,13.79
2022-11-15T10:47:26.443Z,13.58
2022-11-15T10:50:05.393Z,13.72
2022-11-15T10:52:39.177Z,13.76
2022-11-15T10:55:26.491Z,13.90
2022-11-15T10:58:06.174Z,13.97
2022-11-15T11:00:43.337Z,13.91
2022-11-15T11:03:30.803Z,13.76
2022-11-15T11:06:12.851Z,13.66
2022-11-15T11:08:42.299Z,13.58
2022-11-15T11:11:11.245Z,13.52
2022-11-15T11:13:42.166Z,13.53
2022-11-15T11:16:46.120Z,13.43
2022-11-15T11:19:48.979Z,13.37
2022-11-15T11:22:29.298Z,13.44
2022-11-15T11:25:10.617Z,13.65
2022-11-15T11:27:48.009Z,13.89
2022-11-15T11:30:24.066Z,14.15
2022-11-15T11:33:08.041Z,14.25
2022-11-15T11:35:47.643Z,14.31
2022-11-15T11:38:43.156Z,14.22
2022-11-15T11:41:22.803Z,14.30
2022-11-15T11:44:03.468Z,14.32
2022-11-15T11:46:57.465Z,14.20
2022-11-15T11:49:36.174Z,14.23
2022-11-15T11:52:12.223Z,14.10
2022-11-15T11:54:56.174Z,14.12
2022-11-15T11:57:36.764Z,14.11
2022-11-15T12:00:16.803Z,14.12
2022-11-15T12:02:55.713Z,14.08
2022-11-15T12:05:31.218Z,14.07
2022-11-15T12:08:28.227Z,14.11
2022-11-15T12:11:10.787Z,14.17
2022-11-15T12:13:40.592Z,14.13
2022-11-15T12:16:17.112Z,14.12
2022-11-15T12:18:51.941Z,14.12
2022-11-15T12:21:34.418Z,14.20
2022-11-15T12:24:07.171Z,14.07
2022-11-15T12:26:41.673Z,14.18
2022-11-15T12:29:18.253Z,14.22
2022-11-15T12:31:52.022Z,14.10
2022-11-15T12:34:45.964Z,14.21
2022-11-15T12:37:56.410Z,14.19
2022-11-15T12:40:38.064Z,14.27
2022-11-15T12:43:39.024Z,14.18
2022-11-15T12:46:13.979Z,14.12
2022-11-15T12:48:55.906Z,14.06
2022-11-15T12:52:08.171Z,14.08
2022-11-15T12:55:06.286Z,14.06
2022-11-15T12:57:44.511Z,14.00
2022-11-15T13:00:49.492Z,13.97
2022-11-15T13:03:31.119Z,13.98
2022-11-15T13:06:10.145Z,13.95
2022-11-15T13:08:49.363Z,13.94
2022-11-15T13:12:01.678Z,13.92
2022-11-15T13:14:52.590Z,13.95
2022-11-15T13:17:37.246Z,13.95
2022-11-15T13:20:32.456Z,13.87
2022-11-15T13:23:11.866Z,13.82
2022-11-15T13:26:10.435Z,13.85
2022-11-15T13:28:45.362Z,13.89
2022-11-15T13:31:35.814Z,13.94
2022-11-15T13:34:44.623Z,13.91
2022-11-15T13:37:12.095Z,13.85
2022-11-15T13:40:01.623Z,13.76
2022-11-15T13:42:33.699Z,13.83
2022-11-15T13:45:11.621Z,13.89
2022-11-15T13:47:40.196Z,13.84
2022-11-15T13:50:13.263Z,13.79
2022-11-15T13:52:46.603Z,13.80
2022-11-15T13:55:18.060Z,13.81
2022-11-15T13:57:51.814Z,13.78
2022-11-15T14:00:45.313Z,13.78
2022-11-15T14:03:21.859Z,13.74
2022-11-15T14:06:08.577Z,13.73
2022-11-15T14:08:37.974Z,13.71
2022-11-15T14:11:19.214Z,13.67
2022-11-15T14:14:23.246Z,13.65
2022-11-15T14:16:55.173Z,13.65
2022-11-15T14:19:41.588Z,13.61
2022-11-15T14:22:18.857Z,13.63
2022-11-15T14:25:05.194Z,13.63
2022-11-15T14:27:34.077Z,13.61
2022-11-15T14:30:06.629Z,13.59
2022-11-15T14:32:48.892Z,13.59
2022-11-15T14:35:23.669Z,13.60
2022-11-15T14:37:52.511Z,13.57
2022-11-15T14:40:23.665Z,13.54
2022-11-15T14:42:52.512Z,13.50
2022-11-15T14:45:25.141Z,13.52
2022-11-15T14:47:53.521Z,13.51
2022-11-15T14:50:23.969Z,13.52
2022-11-15T14:52:54.975Z,13.51
2022-11-15T14:55:26.321Z,13.45
2022-11-15T14:57:54.721Z,13.39
2022-11-15T15:00:42.078Z,13.38
2022-11-15T15:03:13.995Z,13.41
2022-11-15T15:05:44.782Z,13.35
2022-11-15T15:08:13.572Z,13.32
2022-11-15T15:10:44.706Z,13.31
2022-11-15T15:13:20.670Z,13.26
2022-11-15T15:15:52.371Z,13.20
2022-11-15T15:18:21.549Z,13.08
2022-11-15T15:20:57.487Z,13.01
2022-11-15T15:23:28.003Z,12.92
2022-11-15T15:25:56.437Z,12.95
2022-11-15T15:28:27.583Z,12.95
2022-11-15T15:30:59.732Z,12.95
2022-11-15T15:33:28.240Z,12.91
2022-11-15T15:35:56.618Z,12.90
2022-11-15T15:38:25.013Z,12.87
2022-11-15T15:40:53.422Z,12.87
2022-11-15T15:43:21.796Z,12.88
2022-11-15T15:45:50.131Z,12.89
2022-11-15T15:48:19.889Z,12.88
2022-11-15T15:50:48.366Z,12.85
2022-11-15T15:53:16.749Z,12.87
2022-11-15T15:55:45.236Z,12.81
2022-11-15T15:58:13.579Z,12.78
2022-11-15T16:00:41.982Z,12.80
2022-11-15T16:03:10.424Z,12.83
2022-11-15T16:05:43.272Z,12.83
2022-11-15T16:08:20.519Z,12.83
2022-11-15T16:10:49.563Z,12.79
2022-11-15T16:13:18.614Z,12.86
2022-11-15T16:15:49.793Z,12.84
2022-11-15T16:18:20.364Z,12.86
2022-11-15T16:20:53.113Z,12.85
2022-11-15T16:23:24.637Z,12.84
2022-11-15T16:25:56.361Z,12.83
2022-11-15T16:28:27.189Z,12.84
2022-11-15T16:31:06.882Z,12.81
2022-11-15T16:33:50.551Z,12.81
2022-11-15T16:36:30.010Z,12.81
2022-11-15T16:39:00.101Z,12.83
2022-11-15T16:41:28.756Z,12.78
2022-11-15T16:43:57.134Z,12.81
2022-11-15T16:46:28.012Z,12.81
2022-11-15T16:48:56.941Z,12.75
2022-11-15T16:51:26.780Z,12.76
2022-11-15T16:53:55.223Z,12.76
2022-11-15T16:56:28.483Z,12.75
2022-11-15T16:58:58.694Z,12.72
2022-11-15T17:01:29.888Z,12.69
2022-11-15T17:03:58.738Z,12.68
2022-11-15T17:06:28.827Z,12.67
2022-11-15T17:08:57.230Z,12.65
2022-11-15T17:11:25.544Z,12.63
2022-11-15T17:13:59.796Z,12.64
2022-11-15T17:16:28.305Z,12.64
2022-11-15T17:18:57.213Z,12.60
2022-11-15T17:21:33.370Z,12.55
2022-11-15T17:24:02.239Z,12.56
2022-11-15T17:26:34.002Z,12.52
2022-11-15T17:29:07.839Z,12.52
2022-11-15T17:31:37.782Z,12.50
2022-11-15T17:34:07.943Z,12.52
2022-11-15T17:36:37.741Z,12.52
2022-11-15T17:39:06.898Z,12.52
2022-11-15T17:41:35.388Z,12.49
2022-11-15T17:44:04.325Z,12.48
2022-11-15T17:46:34.099Z,12.45
2022-11-15T17:49:02.664Z,12.43
2022-11-15T17:51:31.257Z,12.46
2022-11-15T17:54:01.097Z,12.50
2022-11-15T17:56:31.542Z,12.48
2022-11-15T17:59:02.069Z,12.46
2022-11-15T18:01:32.396Z,12.49
2022-11-15T18:04:02.561Z,12.45
2022-11-15T18:06:33.571Z,12.43
2022-11-15T18:09:05.148Z,12.45
2022-11-15T18:11:38.357Z,12.49
2022-11-15T18:14:11.843Z,12.49
2022-11-15T18:16:40.311Z,12.48
2022-11-15T18:19:13.373Z,12.49
2022-11-15T18:22:00.010Z,12.48
2022-11-15T18:24:33.499Z,12.43
2022-11-15T18:27:03.536Z,12.41
2022-11-15T18:29:33.359Z,12.39
2022-11-15T18:32:05.077Z,12.44
2022-11-15T18:34:34.279Z,12.40
2022-11-15T18:37:03.464Z,12.42
2022-11-15T18:39:33.814Z,12.46
2022-11-15T18:42:02.658Z,12.42
2022-11-15T18:44:31.760Z,12.49
2022-11-15T18:47:00.152Z,12.50
2022-11-15T18:49:28.580Z,12.52
2022-11-15T18:51:57.130Z,12.52
2022-11-15T18:54:30.648Z,12.52
2022-11-15T18:57:01.730Z,12.52
2022-11-15T18:59:31.097Z,12.45
2022-11-15T19:01:59.667Z,12.45
2022-11-15T19:04:28.350Z,12.36
2022-11-15T19:06:56.773Z,12.26
2022-11-15T19:09:32.047Z,12.35
2022-11-15T19:12:01.893Z,12.30
2022-11-15T19:14:30.270Z,12.25
2022-11-15T19:16:59.172Z,12.24
2022-11-15T19:19:30.040Z,12.24
2022-11-15T19:21:58.641Z,12.25
2022-11-15T19:24:27.628Z,12.23
2022-11-15T19:26:56.007Z,12.21
2022-11-15T19:29:25.848Z,12.22
2022-11-15T19:31:54.301Z,12.25
2022-11-15T19:34:22.770Z,12.24
2022-11-15T19:36:51.248Z,12.18
2022-11-15T19:39:19.677Z,12.21
2022-11-15T19:41:48.319Z,12.21
2022-11-15T19:44:16.786Z,12.19
2022-11-15T19:46:46.528Z,12.20
2022-11-15T19:49:14.957Z,12.22
2022-11-15T19:51:45.214Z,12.19
2022-11-15T19:54:13.803Z,12.21
2022-11-15T19:56:42.180Z,12.23
2022-11-15T19:59:11.910Z,12.24
2022-11-15T20:01:40.565Z,12.22
2022-11-15T20:04:10.966Z,12.18
2022-11-15T20:06:41.961Z,12.20
2022-11-15T20:09:14.464Z,12.22
2022-11-15T20:11:43.228Z,12.18
2022-11-15T20:14:13.042Z,12.20
2022-11-15T20:16:41.813Z,12.18
2022-11-15T20:19:12.554Z,12.18
2022-11-15T20:21:41.278Z,12.17
2022-11-15T20:24:10.109Z,12.16
2022-11-15T20:26:39.318Z,12.14
2022-11-15T20:29:09.961Z,12.16
2022-11-15T20:31:38.592Z,12.16
2022-11-15T20:34:07.307Z,12.13
2022-11-15T20:36:37.159Z,12.06
2022-11-15T20:39:05.601Z,12.04
2022-11-15T20:41:34.061Z,12.01
2022-11-15T20:44:03.692Z,12.04
2022-11-15T20:46:32.205Z,12.04
2022-11-15T20:49:00.852Z,12.04
2022-11-15T20:51:29.237Z,12.03
2022-11-15T20:53:58.996Z,11.99
2022-11-15T20:56:27.430Z,11.93
2022-11-15T20:58:56.619Z,11.95
2022-11-15T21:01:25.598Z,11.93
2022-11-15T21:03:55.329Z,11.91
2022-11-15T21:06:25.562Z,11.87
2022-11-15T21:09:12.962Z,11.88
2022-11-15T21:12:06.305Z,11.87
2022-11-15T21:14:34.839Z,11.88
2022-11-15T21:17:03.410Z,11.86
2022-11-15T21:19:36.857Z,11.81
2022-11-15T21:22:10.089Z,11.83
2022-11-15T21:24:38.599Z,11.83
2022-11-15T21:27:10.037Z,11.83
2022-11-15T21:29:38.718Z,11.83
2022-11-15T21:32:08.719Z,11.75
2022-11-15T21:34:37.312Z,11.77
2022-11-15T21:37:06.881Z,11.74
2022-11-15T21:39:35.310Z,11.78
2022-11-15T21:42:03.915Z,11.74
2022-11-15T21:44:33.754Z,11.75
2022-11-15T21:47:02.122Z,11.76
2022-11-15T21:49:30.666Z,11.74
2022-11-15T21:51:59.030Z,11.73
2022-11-15T21:54:27.497Z,11.74
2022-11-15T21:56:56.054Z,11.72
2022-11-15T21:59:24.500Z,11.72
2022-11-15T22:02:12.174Z,11.73
2022-11-15T22:04:40.552Z,11.71
2022-11-15T22:07:09.156Z,11.72
2022-11-15T22:09:37.666Z,11.69
2022-11-15T22:12:06.289Z,11.69
2022-11-15T22:14:34.588Z,11.69
2022-11-15T22:17:04.669Z,11.71
2022-11-15T22:19:33.200Z,11.72
2022-11-15T22:22:01.803Z,11.69
2022-11-15T22:24:30.520Z,11.73
2022-11-15T22:26:59.255Z,11.71
2022-11-15T22:29:30.982Z,11.73
2022-11-15T22:31:59.976Z,11.67
2022-11-15T22:34:30.018Z,11.71
2022-11-15T22:37:19.961Z,11.72
2022-11-15T22:39:47.322Z,11.71
2022-11-15T22:42:20.708Z,11.67
2022-11-15T22:44:51.958Z,11.67
2022-11-15T22:47:20.555Z,11.66
2022-11-15T22:49:51.248Z,11.68
2022-11-15T22:52:20.163Z,11.70
2022-11-15T22:54:48.691Z,11.68
2022-11-15T22:57:17.242Z,11.63
2022-11-15T22:59:45.921Z,11.64
2022-11-15T23:02:14.536Z,11.67
2022-11-15T23:04:43.108Z,11.68
2022-11-15T23:07:13.222Z,11.64
2022-11-15T23:09:41.899Z,11.63
2022-11-15T23:12:30.970Z,11.60
2022-11-15T23:14:59.567Z,11.54
2022-11-15T23:17:28.129Z,11.49
2022-11-15T23:19:56.648Z,11.49
2022-11-15T23:22:44.214Z,11.46
2022-11-15T23:25:12.786Z,11.40
2022-11-15T23:27:41.363Z,11.37
2022-11-15T23:30:28.830Z,11.33
2022-11-15T23:33:15.193Z,11.33
2022-11-15T23:35:43.814Z,11.29
2022-11-15T23:38:13.824Z,11.27
2022-11-15T23:40:42.592Z,11.19
2022-11-15T23:43:11.238Z,11.25
2022-11-15T23:45:39.851Z,11.18
2022-11-15T23:48:08.555Z,11.10
2022-11-15T23:50:38.125Z,11.07
2022-11-15T23:53:07.385Z,11.05
2022-11-15T23:55:37.424Z,11.01
2022-11-15T23:58:06.089Z,10.94
